createdAt,value
2023-04-27T00:00:10.980Z,1.00
2023-04-27T00:01:10.938Z,0.80
2023-04-27T00:02:11.019Z,0.80
2023-04-27T00:03:11.145Z,0.80
2023-04-27T00:04:11.081Z,0.90
2023-04-27T00:05:11.124Z,1.40
2023-04-27T00:06:11.063Z,1.00
2023-04-27T00:07:10.934Z,0.80
2023-04-27T00:08:10.923Z,0.80
2023-04-27T00:09:10.965Z,0.80
2023-04-27T00:10:10.928Z,0.80
2023-04-27T00:11:10.904Z,0.90
2023-04-27T00:12:10.901Z,0.80
2023-04-27T00:13:10.886Z,0.80
2023-04-27T00:14:10.915Z,0.90
2023-04-27T00:15:10.904Z,0.90
2023-04-27T00:16:10.921Z,0.90
2023-04-27T00:17:10.904Z,0.90
2023-04-27T00:18:10.924Z,1.20
2023-04-27T00:19:10.932Z,1.40
2023-04-27T00:20:10.875Z,0.80
2023-04-27T00:21:10.869Z,0.70
2023-04-27T00:22:10.874Z,1.20
2023-04-27T00:23:10.856Z,1.40
2023-04-27T00:24:10.864Z,0.80
2023-04-27T00:25:10.851Z,0.90
2023-04-27T00:26:10.842Z,0.80
2023-04-27T00:27:10.834Z,0.90
2023-04-27T00:28:10.827Z,1.10
2023-04-27T00:29:10.909Z,0.90
2023-04-27T00:30:10.810Z,1.00
2023-04-27T00:31:10.802Z,0.80
2023-04-27T00:32:10.984Z,1.10
2023-04-27T00:33:10.834Z,0.80
2023-04-27T00:34:10.820Z,1.20
2023-04-27T00:35:10.784Z,0.80
2023-04-27T00:36:10.796Z,1.00
2023-04-27T00:37:10.800Z,1.40
2023-04-27T00:38:10.828Z,0.80
2023-04-27T00:39:10.831Z,1.00
2023-04-27T00:40:10.803Z,0.90
2023-04-27T00:41:10.791Z,0.70
2023-04-27T00:42:10.766Z,1.00
2023-04-27T00:43:10.766Z,0.90
2023-04-27T00:44:10.767Z,1.10
2023-04-27T00:45:10.762Z,1.30
2023-04-27T00:46:10.790Z,0.80
2023-04-27T00:47:10.742Z,1.10
2023-04-27T00:48:10.735Z,1.00
2023-04-27T00:49:10.757Z,0.90
2023-04-27T00:50:10.742Z,0.90
2023-04-27T00:51:10.730Z,0.80
2023-04-27T00:52:10.727Z,1.00
2023-04-27T00:53:10.710Z,1.00
2023-04-27T00:54:10.729Z,0.90
2023-04-27T00:55:10.705Z,1.00
2023-04-27T00:56:10.697Z,0.80
2023-04-27T00:57:10.690Z,1.10
2023-04-27T00:58:10.683Z,0.90
2023-04-27T00:59:10.716Z,1.10
2023-04-27T01:00:10.700Z,0.90
2023-04-27T01:01:10.690Z,0.80
2023-04-27T01:02:10.730Z,0.80
2023-04-27T01:03:10.914Z,0.90
2023-04-27T01:04:10.883Z,1.00
2023-04-27T01:05:10.674Z,1.10
2023-04-27T01:06:10.638Z,0.70
2023-04-27T01:07:10.661Z,0.90
2023-04-27T01:08:10.649Z,0.80
2023-04-27T01:09:10.638Z,0.80
2023-04-27T01:10:10.662Z,0.70
2023-04-27T01:11:10.638Z,0.80
2023-04-27T01:12:10.639Z,0.90
2023-04-27T01:13:10.622Z,1.00
2023-04-27T01:14:10.602Z,0.80
2023-04-27T01:15:10.595Z,0.70
2023-04-27T01:16:10.596Z,0.70
2023-04-27T01:17:10.879Z,0.90
2023-04-27T01:18:10.627Z,0.80
2023-04-27T01:19:10.694Z,0.70
2023-04-27T01:20:10.633Z,0.90
2023-04-27T01:21:10.570Z,1.00
2023-04-27T01:22:10.598Z,0.90
2023-04-27T01:23:10.574Z,0.80
2023-04-27T01:24:10.583Z,0.90
2023-04-27T01:25:10.576Z,1.00
2023-04-27T01:26:10.594Z,0.80
2023-04-27T01:27:10.545Z,1.10
2023-04-27T01:28:10.545Z,0.90
2023-04-27T01:29:10.575Z,0.80
2023-04-27T01:30:10.548Z,0.80
2023-04-27T01:31:10.642Z,0.70
2023-04-27T01:32:10.527Z,0.80
2023-04-27T01:33:10.520Z,0.80
2023-04-27T01:34:10.512Z,1.00
2023-04-27T01:35:10.533Z,0.80
2023-04-27T01:36:10.510Z,0.60
2023-04-27T01:37:10.505Z,1.50
2023-04-27T01:38:10.502Z,1.00
2023-04-27T01:39:10.531Z,1.00
2023-04-27T01:40:10.538Z,0.90
2023-04-27T01:41:10.540Z,0.80
2023-04-27T01:42:10.598Z,1.10
2023-04-27T01:43:10.537Z,1.00
2023-04-27T01:44:10.474Z,0.70
2023-04-27T01:45:10.480Z,0.90
2023-04-27T01:46:10.574Z,0.80
2023-04-27T01:47:10.467Z,0.60
2023-04-27T01:48:10.480Z,0.90
2023-04-27T01:49:10.461Z,0.80
2023-04-27T01:50:10.463Z,0.70
2023-04-27T01:51:10.463Z,0.90
2023-04-27T01:52:10.451Z,0.80
2023-04-27T01:53:10.433Z,0.80
2023-04-27T01:54:10.422Z,0.90
2023-04-27T01:55:10.426Z,0.90
2023-04-27T01:56:10.425Z,0.90
2023-04-27T01:57:10.420Z,0.90
2023-04-27T01:58:10.434Z,0.90
2023-04-27T01:59:10.427Z,1.20
2023-04-27T02:00:10.405Z,0.80
2023-04-27T02:01:10.419Z,0.80
2023-04-27T02:02:10.439Z,0.80
2023-04-27T02:03:10.459Z,0.70
2023-04-27T02:04:10.475Z,1.10
2023-04-27T02:05:10.376Z,1.00
2023-04-27T02:06:10.370Z,0.70
2023-04-27T02:07:10.379Z,0.70
2023-04-27T02:08:10.368Z,0.90
2023-04-27T02:09:10.372Z,0.90
2023-04-27T02:10:10.365Z,0.90
2023-04-27T02:11:10.377Z,1.00
2023-04-27T02:12:10.344Z,1.00
2023-04-27T02:13:10.336Z,0.90
2023-04-27T02:14:10.365Z,0.90
2023-04-27T02:15:10.342Z,1.30
2023-04-27T02:16:10.356Z,1.00
2023-04-27T02:17:10.340Z,1.10
2023-04-27T02:18:10.363Z,0.80
2023-04-27T02:19:10.318Z,0.90
2023-04-27T02:20:10.299Z,0.90
2023-04-27T02:21:10.332Z,0.80
2023-04-27T02:22:10.305Z,0.80
2023-04-27T02:23:10.300Z,0.80
2023-04-27T02:24:10.305Z,0.80
2023-04-27T02:25:10.300Z,1.50
2023-04-27T02:26:10.270Z,0.80
2023-04-27T02:27:10.329Z,0.60
2023-04-27T02:28:10.263Z,0.80
2023-04-27T02:29:10.320Z,0.80
2023-04-27T02:30:10.423Z,0.80
2023-04-27T02:31:10.303Z,1.20
2023-04-27T02:32:10.267Z,1.00
2023-04-27T02:33:10.342Z,1.30
2023-04-27T02:34:10.244Z,0.80
2023-04-27T02:35:10.228Z,0.80
2023-04-27T02:36:10.223Z,1.30
2023-04-27T02:37:10.242Z,0.80
2023-04-27T02:38:10.228Z,0.90
2023-04-27T02:39:10.217Z,1.20
2023-04-27T02:40:10.228Z,1.00
2023-04-27T02:41:10.215Z,0.80
2023-04-27T02:42:10.215Z,1.10
2023-04-27T02:43:10.211Z,0.80
2023-04-27T02:44:10.217Z,0.90
2023-04-27T02:45:10.203Z,0.90
2023-04-27T02:46:10.408Z,0.80
2023-04-27T02:47:10.215Z,0.80
2023-04-27T02:48:10.227Z,0.90
2023-04-27T02:49:10.161Z,0.90
2023-04-27T02:50:10.157Z,0.70
2023-04-27T02:51:10.156Z,0.70
2023-04-27T02:52:10.163Z,0.90
2023-04-27T02:53:10.146Z,0.90
2023-04-27T02:54:10.165Z,0.90
2023-04-27T02:55:10.154Z,0.70
2023-04-27T02:56:10.130Z,0.80
2023-04-27T02:57:10.123Z,1.10
2023-04-27T02:58:10.132Z,0.90
2023-04-27T02:59:10.140Z,0.90
2023-04-27T03:00:10.125Z,0.90
2023-04-27T03:01:10.181Z,0.70
2023-04-27T03:02:10.119Z,0.80
2023-04-27T03:03:10.313Z,1.00
2023-04-27T03:04:10.329Z,1.00
2023-04-27T03:05:10.095Z,0.70
2023-04-27T03:06:10.094Z,0.90
2023-04-27T03:07:10.096Z,0.90
2023-04-27T03:08:10.091Z,1.20
2023-04-27T03:09:10.087Z,0.90
2023-04-27T03:10:10.057Z,1.00
2023-04-27T03:11:10.076Z,0.90
2023-04-27T03:12:10.071Z,0.90
2023-04-27T03:13:10.064Z,0.80
2023-04-27T03:14:10.058Z,1.00
2023-04-27T03:15:10.037Z,0.80
2023-04-27T03:16:10.070Z,0.90
2023-04-27T03:17:10.033Z,0.70
2023-04-27T03:18:10.069Z,0.80
2023-04-27T03:19:10.031Z,0.80
2023-04-27T03:20:10.021Z,0.80
2023-04-27T03:21:10.043Z,1.00
2023-04-27T03:22:09.998Z,1.00
2023-04-27T03:23:10.028Z,0.90
2023-04-27T03:24:10.028Z,1.20
2023-04-27T03:25:10.012Z,0.80
2023-04-27T03:26:09.998Z,1.50
2023-04-27T03:27:09.993Z,0.90
2023-04-27T03:28:09.991Z,0.90
2023-04-27T03:29:09.996Z,1.10
2023-04-27T03:30:10.015Z,0.70
2023-04-27T03:31:09.980Z,0.70
2023-04-27T03:32:10.177Z,0.90
2023-04-27T03:33:10.009Z,0.80
2023-04-27T03:34:09.966Z,0.70
2023-04-27T03:35:09.953Z,0.70
2023-04-27T03:36:09.949Z,0.80
2023-04-27T03:37:09.945Z,1.00
2023-04-27T03:38:09.941Z,0.90
2023-04-27T03:39:09.943Z,0.70
2023-04-27T03:40:09.959Z,0.70
2023-04-27T03:41:09.929Z,0.80
2023-04-27T03:42:09.910Z,1.10
2023-04-27T03:43:09.904Z,0.90
2023-04-27T03:44:09.897Z,0.90
2023-04-27T03:45:09.900Z,0.90
2023-04-27T03:46:09.922Z,0.70
2023-04-27T03:47:09.942Z,0.90
2023-04-27T03:48:09.950Z,1.00
2023-04-27T03:49:09.892Z,1.00
2023-04-27T03:50:09.910Z,0.90
2023-04-27T03:51:09.899Z,1.00
2023-04-27T03:52:09.861Z,0.80
2023-04-27T03:53:09.860Z,0.80
2023-04-27T03:54:09.854Z,0.90
2023-04-27T03:55:09.878Z,0.90
2023-04-27T03:56:09.841Z,0.80
2023-04-27T03:57:09.870Z,0.70
2023-04-27T03:58:09.842Z,1.20
2023-04-27T03:59:09.844Z,1.00
2023-04-27T04:00:09.828Z,0.70
2023-04-27T04:01:09.861Z,0.70
2023-04-27T04:02:09.937Z,1.10
2023-04-27T04:03:10.107Z,0.90
2023-04-27T04:04:09.918Z,1.10
2023-04-27T04:05:09.894Z,0.80
2023-04-27T04:06:09.854Z,1.10
2023-04-27T04:07:09.812Z,0.90
2023-04-27T04:08:09.804Z,0.90
2023-04-27T04:09:09.800Z,0.80
2023-04-27T04:10:09.782Z,0.70
2023-04-27T04:11:09.777Z,0.80
2023-04-27T04:12:09.780Z,1.10
2023-04-27T04:13:09.788Z,0.90
2023-04-27T04:14:09.774Z,0.80
2023-04-27T04:15:09.776Z,0.70
2023-04-27T04:16:09.851Z,1.30
2023-04-27T04:17:09.786Z,0.80
2023-04-27T04:18:09.805Z,1.00
2023-04-27T04:19:09.731Z,0.80
2023-04-27T04:20:09.731Z,0.80
2023-04-27T04:21:09.741Z,0.80
2023-04-27T04:22:09.749Z,1.00
2023-04-27T04:23:09.738Z,1.30
2023-04-27T04:24:09.717Z,0.80
2023-04-27T04:25:09.715Z,1.10
2023-04-27T04:26:09.718Z,0.80
2023-04-27T04:27:09.719Z,1.30
2023-04-27T04:28:09.735Z,0.80
2023-04-27T04:29:11.220Z,0.80
2023-04-27T04:30:09.707Z,0.90
2023-04-27T04:31:09.866Z,0.90
2023-04-27T04:32:09.695Z,0.90
2023-04-27T04:33:09.690Z,1.50
2023-04-27T04:34:09.674Z,1.10
2023-04-27T04:35:09.663Z,0.80
2023-04-27T04:36:09.678Z,0.70
2023-04-27T04:37:09.649Z,1.00
2023-04-27T04:38:09.660Z,1.10
2023-04-27T04:39:09.648Z,0.80
2023-04-27T04:40:09.666Z,1.10
2023-04-27T04:41:09.638Z,0.90
2023-04-27T04:42:09.634Z,1.00
2023-04-27T04:43:09.627Z,0.80
2023-04-27T04:44:09.619Z,1.10
2023-04-27T04:45:09.620Z,1.00
2023-04-27T04:46:09.629Z,0.80
2023-04-27T04:47:09.626Z,0.80
2023-04-27T04:48:09.591Z,0.80
2023-04-27T04:49:09.606Z,0.80
2023-04-27T04:50:09.596Z,0.70
2023-04-27T04:51:09.594Z,1.00
2023-04-27T04:52:09.697Z,1.10
2023-04-27T04:53:09.603Z,0.80
2023-04-27T04:54:09.808Z,1.30
2023-04-27T04:55:09.581Z,1.00
2023-04-27T04:56:09.553Z,0.80
2023-04-27T04:57:09.554Z,0.90
2023-04-27T04:58:09.566Z,0.80
2023-04-27T04:59:09.566Z,0.70
2023-04-27T05:00:09.537Z,0.70
2023-04-27T05:01:09.564Z,0.80
2023-04-27T05:02:09.548Z,0.90
2023-04-27T05:03:09.669Z,1.00
2023-04-27T05:04:09.673Z,0.80
2023-04-27T05:05:09.588Z,1.00
2023-04-27T05:06:09.517Z,0.60
2023-04-27T05:07:09.531Z,0.70
2023-04-27T05:08:09.527Z,0.90
2023-04-27T05:09:09.504Z,0.70
2023-04-27T05:10:09.533Z,1.10
2023-04-27T05:11:09.529Z,0.80
2023-04-27T05:12:09.542Z,0.80
2023-04-27T05:13:09.511Z,1.00
2023-04-27T05:14:09.498Z,1.20
2023-04-27T05:15:09.484Z,0.60
2023-04-27T05:16:09.501Z,0.90
2023-04-27T05:17:09.498Z,0.70
2023-04-27T05:18:09.645Z,1.00
2023-04-27T05:19:09.493Z,0.80
2023-04-27T05:20:09.488Z,0.70
2023-04-27T05:21:09.468Z,0.80
2023-04-27T05:22:09.443Z,1.00
2023-04-27T05:23:09.463Z,0.80
2023-04-27T05:24:09.447Z,0.70
2023-04-27T05:25:09.450Z,1.30
2023-04-27T05:26:09.462Z,0.70
2023-04-27T05:27:09.438Z,1.40
2023-04-27T05:28:09.492Z,1.00
2023-04-27T05:29:09.454Z,0.80
2023-04-27T05:30:09.430Z,0.70
2023-04-27T05:31:09.471Z,0.60
2023-04-27T05:32:09.641Z,0.70
2023-04-27T05:33:09.450Z,0.60
2023-04-27T05:34:09.427Z,0.80
2023-04-27T05:35:09.422Z,0.60
2023-04-27T05:36:09.420Z,0.80
2023-04-27T05:37:09.405Z,1.00
2023-04-27T05:38:09.400Z,0.90
2023-04-27T05:39:09.468Z,0.70
2023-04-27T05:40:09.399Z,0.60
2023-04-27T05:41:09.416Z,0.80
2023-04-27T05:42:09.410Z,0.70
2023-04-27T05:43:09.388Z,1.20
2023-04-27T05:44:09.384Z,0.90
2023-04-27T05:45:09.379Z,0.70
2023-04-27T05:46:09.421Z,0.70
2023-04-27T05:47:09.391Z,1.20
2023-04-27T05:48:09.360Z,0.80
2023-04-27T05:49:09.379Z,1.20
2023-04-27T05:50:09.380Z,0.80
2023-04-27T05:51:09.373Z,0.80
2023-04-27T05:52:09.388Z,0.80
2023-04-27T05:53:09.381Z,0.70
2023-04-27T05:54:09.344Z,0.80
2023-04-27T05:55:09.375Z,0.80
2023-04-27T05:56:09.359Z,0.90
2023-04-27T05:57:09.340Z,0.80
2023-04-27T05:58:09.555Z,0.70
2023-04-27T05:59:09.361Z,0.70
2023-04-27T06:00:09.352Z,1.00
2023-04-27T06:01:09.353Z,1.50
2023-04-27T06:02:09.415Z,1.30
2023-04-27T06:03:09.525Z,0.70
2023-04-27T06:04:09.505Z,1.20
2023-04-27T06:05:09.370Z,0.90
2023-04-27T06:06:09.331Z,0.90
2023-04-27T06:07:10.274Z,0.90
2023-04-27T06:08:09.333Z,0.80
2023-04-27T06:09:09.298Z,0.70
2023-04-27T06:10:09.305Z,0.90
2023-04-27T06:11:09.316Z,0.70
2023-04-27T06:12:09.315Z,0.90
2023-04-27T06:13:09.297Z,0.70
2023-04-27T06:14:09.339Z,0.90
2023-04-27T06:15:09.323Z,1.00
2023-04-27T06:16:09.348Z,0.60
2023-04-27T06:17:09.281Z,0.60
2023-04-27T06:18:09.290Z,1.20
2023-04-27T06:19:09.271Z,0.70
2023-04-27T06:20:09.273Z,0.90
2023-04-27T06:21:09.280Z,1.00
2023-04-27T06:22:09.281Z,0.60
2023-04-27T06:23:09.269Z,0.90
2023-04-27T06:24:09.273Z,0.80
2023-04-27T06:25:09.277Z,0.90
2023-04-27T06:26:09.251Z,0.80
2023-04-27T06:27:09.293Z,1.10
2023-04-27T06:28:09.262Z,0.80
2023-04-27T06:29:09.254Z,0.80
2023-04-27T06:30:09.254Z,0.90
2023-04-27T06:31:09.262Z,0.80
2023-04-27T06:32:09.309Z,0.90
2023-04-27T06:33:09.282Z,0.90
2023-04-27T06:34:09.270Z,1.10
2023-04-27T06:35:09.228Z,1.00
2023-04-27T06:36:09.219Z,1.80
2023-04-27T06:37:09.214Z,0.80
2023-04-27T06:38:09.228Z,0.90
2023-04-27T06:39:09.209Z,0.60
2023-04-27T06:40:09.249Z,0.70
2023-04-27T06:41:09.211Z,0.80
2023-04-27T06:42:09.210Z,1.40
2023-04-27T06:43:09.206Z,0.90
2023-04-27T06:44:09.209Z,1.50
2023-04-27T06:45:09.197Z,1.40
2023-04-27T06:46:09.237Z,0.90
2023-04-27T06:47:09.371Z,0.80
2023-04-27T06:48:09.259Z,1.20
2023-04-27T06:49:09.192Z,1.30
2023-04-27T06:50:09.194Z,0.80
2023-04-27T06:51:09.194Z,0.80
2023-04-27T06:52:09.181Z,0.70
2023-04-27T06:53:09.174Z,0.80
2023-04-27T06:54:09.199Z,0.80
2023-04-27T06:55:09.172Z,0.70
2023-04-27T06:56:09.170Z,0.80
2023-04-27T06:57:09.151Z,0.80
2023-04-27T06:58:09.158Z,0.90
2023-04-27T06:59:09.188Z,1.10
2023-04-27T07:00:09.160Z,0.80
2023-04-27T07:01:09.166Z,0.90
2023-04-27T07:02:09.165Z,0.80
2023-04-27T07:03:09.283Z,0.80
2023-04-27T07:04:09.229Z,0.80
2023-04-27T07:05:09.122Z,0.60
2023-04-27T07:06:09.115Z,0.70
2023-04-27T07:07:09.123Z,0.80
2023-04-27T07:08:09.406Z,0.70
2023-04-27T07:09:20.185Z,0.80
2023-04-27T07:10:09.134Z,0.90
2023-04-27T07:11:09.099Z,1.10
2023-04-27T07:12:09.116Z,0.80
2023-04-27T07:13:09.602Z,1.10
2023-04-27T07:14:09.112Z,0.70
2023-04-27T07:15:09.093Z,0.70
2023-04-27T07:16:09.126Z,0.70
2023-04-27T07:17:09.122Z,0.90
2023-04-27T07:18:09.174Z,0.80
2023-04-27T07:19:09.079Z,0.70
2023-04-27T07:20:09.085Z,1.40
2023-04-27T07:21:09.089Z,0.80
2023-04-27T07:22:09.070Z,0.80
2023-04-27T07:23:09.073Z,0.60
2023-04-27T07:24:09.080Z,0.70
2023-04-27T07:25:09.072Z,0.80
2023-04-27T07:26:09.059Z,0.70
2023-04-27T07:27:09.103Z,1.00
2023-04-27T07:28:09.079Z,0.80
2023-04-27T07:29:25.510Z,0.70
2023-04-27T07:30:09.048Z,0.70
2023-04-27T07:31:09.118Z,1.10
2023-04-27T07:32:09.261Z,0.90
2023-04-27T07:33:09.087Z,0.80
2023-04-27T07:34:09.049Z,0.60
2023-04-27T07:35:09.016Z,0.80
2023-04-27T07:36:09.026Z,0.60
2023-04-27T07:37:09.027Z,0.80
2023-04-27T07:38:09.065Z,1.00
2023-04-27T07:39:09.019Z,0.90
2023-04-27T07:40:09.004Z,0.80
2023-04-27T07:41:09.018Z,0.60
2023-04-27T07:42:09.016Z,1.20
2023-04-27T07:43:09.017Z,0.90
2023-04-27T07:44:09.004Z,0.70
2023-04-27T07:45:09.001Z,0.70
2023-04-27T07:46:09.037Z,0.80
2023-04-27T07:47:08.983Z,0.60
2023-04-27T07:48:09.017Z,1.00
2023-04-27T07:49:09.019Z,1.00
2023-04-27T07:50:09.013Z,0.80
2023-04-27T07:51:08.987Z,0.80
2023-04-27T07:52:08.990Z,0.90
2023-04-27T07:53:08.983Z,1.10
2023-04-27T07:54:08.965Z,0.90
2023-04-27T07:55:08.973Z,0.90
2023-04-27T07:56:08.972Z,1.10
2023-04-27T07:57:08.967Z,0.70
2023-04-27T07:58:08.967Z,0.60
2023-04-27T07:59:08.943Z,1.50
2023-04-27T08:00:08.963Z,0.80
2023-04-27T08:01:08.968Z,1.00
2023-04-27T08:02:19.056Z,1.00
2023-04-27T08:03:09.298Z,0.90
2023-04-27T08:04:09.233Z,0.90
2023-04-27T08:05:09.358Z,0.90
2023-04-27T08:06:09.387Z,0.80
2023-04-27T08:07:09.620Z,1.20
2023-04-27T08:08:08.966Z,0.80
2023-04-27T08:09:08.939Z,0.80
2023-04-27T08:10:08.948Z,1.10
2023-04-27T08:11:08.918Z,0.70
2023-04-27T08:12:08.920Z,0.80
2023-04-27T08:13:08.921Z,1.00
2023-04-27T08:14:08.931Z,0.80
2023-04-27T08:15:08.891Z,0.80
2023-04-27T08:16:08.935Z,0.70
2023-04-27T08:17:08.950Z,0.90
2023-04-27T08:18:08.975Z,0.70
2023-04-27T08:19:08.893Z,0.80
2023-04-27T08:20:08.883Z,0.90
2023-04-27T08:21:08.888Z,0.90
2023-04-27T08:22:08.911Z,1.00
2023-04-27T08:23:08.864Z,1.20
2023-04-27T08:24:08.873Z,0.80
2023-04-27T08:25:08.900Z,1.00
2023-04-27T08:26:08.887Z,0.90
2023-04-27T08:27:08.852Z,0.80
2023-04-27T08:28:08.857Z,0.80
2023-04-27T08:35:20.177Z,0.90
2023-04-27T08:36:20.185Z,0.70
2023-04-27T08:37:20.363Z,0.80
2023-04-27T08:38:20.194Z,0.70
2023-04-27T08:39:20.162Z,0.90
2023-04-27T08:40:20.172Z,0.70
2023-04-27T08:41:22.017Z,0.90
2023-04-27T08:42:20.169Z,1.40
2023-04-27T08:43:20.169Z,1.20
2023-04-27T08:44:20.156Z,1.30
2023-04-27T08:45:20.157Z,1.30
2023-04-27T08:46:20.279Z,1.60
2023-04-27T08:47:25.749Z,1.00
2023-04-27T08:48:20.192Z,1.00
2023-04-27T08:49:20.371Z,0.90
2023-04-27T08:50:20.143Z,1.70
2023-04-27T08:51:20.139Z,1.20
2023-04-27T08:52:20.137Z,0.80
2023-04-27T08:53:20.167Z,1.00
2023-04-27T08:54:20.128Z,1.10
2023-04-27T08:55:20.132Z,0.80
2023-04-27T08:56:20.110Z,0.80
2023-04-27T08:57:20.115Z,0.70
2023-04-27T08:58:20.127Z,1.50
2023-04-27T08:59:20.117Z,0.90
2023-04-27T09:00:20.111Z,1.00
2023-04-27T09:01:20.149Z,0.80
2023-04-27T09:02:20.192Z,0.90
2023-04-27T09:03:20.266Z,1.00
2023-04-27T09:04:20.471Z,0.80
2023-04-27T09:05:20.137Z,0.70
2023-04-27T09:06:20.109Z,0.70
2023-04-27T09:07:20.107Z,0.70
2023-04-27T09:08:20.096Z,0.70
2023-04-27T09:09:20.104Z,1.70
2023-04-27T09:10:20.094Z,0.90
2023-04-27T09:11:20.086Z,0.80
2023-04-27T09:12:20.092Z,1.30
2023-04-27T09:13:20.066Z,0.90
2023-04-27T09:14:20.079Z,1.40
2023-04-27T09:15:20.090Z,0.90
2023-04-27T09:16:20.150Z,0.80
2023-04-27T09:17:20.085Z,1.00
2023-04-27T09:18:20.043Z,1.40
2023-04-27T09:19:20.040Z,0.80
2023-04-27T09:20:20.095Z,2.40
2023-04-27T09:21:20.040Z,3.00
2023-04-27T09:22:20.026Z,3.10
2023-04-27T09:23:20.045Z,2.90
2023-04-27T09:24:20.060Z,2.70
2023-04-27T09:25:20.173Z,2.20
2023-04-27T09:26:20.025Z,2.90
2023-04-27T09:27:20.035Z,2.40
2023-04-27T09:28:20.032Z,3.40
2023-04-27T09:29:20.029Z,3.00
2023-04-27T09:30:20.018Z,2.20
2023-04-27T09:31:20.061Z,2.70
2023-04-27T09:32:20.003Z,2.30
2023-04-27T09:33:20.029Z,2.60
2023-04-27T09:34:20.018Z,2.20
2023-04-27T09:35:20.004Z,1.70
2023-04-27T09:36:19.990Z,2.30
2023-04-27T09:37:19.992Z,2.60
2023-04-27T09:38:19.979Z,2.50
2023-04-27T09:39:19.990Z,2.30
2023-04-27T09:40:20.067Z,2.60
2023-04-27T09:41:20.003Z,1.90
2023-04-27T09:42:19.977Z,2.10
2023-04-27T09:43:19.988Z,2.50
2023-04-27T09:44:19.985Z,1.90
2023-04-27T09:45:19.984Z,2.20
2023-04-27T09:46:19.986Z,2.20
2023-04-27T09:47:19.997Z,1.90
2023-04-27T09:48:19.949Z,2.20
2023-04-27T09:49:19.948Z,1.80
2023-04-27T09:50:19.996Z,1.70
2023-04-27T09:51:19.961Z,2.10
2023-04-27T09:52:19.935Z,1.70
2023-04-27T09:53:19.946Z,1.40
2023-04-27T09:54:19.956Z,1.50
2023-04-27T09:55:19.949Z,1.70
2023-04-27T09:56:19.936Z,1.80
2023-04-27T09:57:19.963Z,1.60
2023-04-27T09:58:19.924Z,2.10
2023-04-27T09:59:19.927Z,2.10
2023-04-27T10:00:19.923Z,1.90
2023-04-27T10:01:19.967Z,2.20
2023-04-27T10:02:25.413Z,1.50
2023-04-27T10:03:19.965Z,1.90
2023-04-27T10:04:19.997Z,1.80
2023-04-27T10:05:20.008Z,2.00
2023-04-27T10:06:19.900Z,1.40
2023-04-27T10:07:19.912Z,1.70
2023-04-27T10:08:19.887Z,1.40
2023-04-27T10:09:19.893Z,2.10
2023-04-27T10:10:19.992Z,1.50
2023-04-27T10:11:19.889Z,1.20
2023-04-27T10:12:19.884Z,1.00
2023-04-27T10:13:19.898Z,1.70
2023-04-27T10:14:19.885Z,1.50
2023-04-27T10:15:19.899Z,1.50
2023-04-27T10:16:19.912Z,1.20
2023-04-27T10:17:19.872Z,1.00
2023-04-27T10:18:19.869Z,1.30
2023-04-27T10:19:19.879Z,2.20
2023-04-27T10:20:19.875Z,1.10
2023-04-27T10:21:19.851Z,1.30
2023-04-27T10:22:19.848Z,1.20
2023-04-27T10:23:19.845Z,1.90
2023-04-27T10:24:19.852Z,1.10
2023-04-27T10:25:19.834Z,1.40
2023-04-27T10:26:19.836Z,1.10
2023-04-27T10:27:19.855Z,1.80
2023-04-27T10:28:19.877Z,1.70
2023-04-27T10:29:19.846Z,1.20
2023-04-27T10:30:19.832Z,1.60
2023-04-27T10:31:19.879Z,1.40
2023-04-27T10:32:19.816Z,1.70
2023-04-27T10:33:19.829Z,1.80
2023-04-27T10:34:21.460Z,1.40
2023-04-27T10:35:19.827Z,1.50
2023-04-27T10:36:19.825Z,2.90
2023-04-27T10:37:19.884Z,2.10
2023-04-27T10:38:19.827Z,1.80
2023-04-27T10:39:46.962Z,1.50
2023-04-27T10:40:19.794Z,0.90
2023-04-27T10:41:19.803Z,1.30
2023-04-27T10:42:19.807Z,1.50
2023-04-27T10:43:19.794Z,1.10
2023-04-27T10:44:19.802Z,2.00
2023-04-27T10:45:19.824Z,1.30
2023-04-27T10:46:19.865Z,1.30
2023-04-27T10:47:19.825Z,1.20
2023-04-27T10:48:19.794Z,1.00
2023-04-27T10:49:19.798Z,1.30
2023-04-27T10:50:19.773Z,1.40
2023-04-27T10:51:19.785Z,1.30
2023-04-27T10:52:19.774Z,0.90
2023-04-27T10:53:19.758Z,1.30
2023-04-27T10:54:19.755Z,1.40
2023-04-27T10:55:19.756Z,1.20
2023-04-27T10:56:19.857Z,0.90
2023-04-27T10:57:19.760Z,1.20
2023-04-27T10:58:19.768Z,1.20
2023-04-27T10:59:19.764Z,1.20
2023-04-27T11:00:19.746Z,1.00
2023-04-27T11:01:19.780Z,1.20
2023-04-27T11:02:19.809Z,0.90
2023-04-27T11:03:20.019Z,1.20
2023-04-27T11:04:19.773Z,1.80
2023-04-27T11:05:19.738Z,2.20
2023-04-27T11:06:19.736Z,0.80
2023-04-27T11:07:19.709Z,1.40
2023-04-27T11:08:19.737Z,0.90
2023-04-27T11:09:19.730Z,1.70
2023-04-27T11:10:19.745Z,1.10
2023-04-27T11:11:20.069Z,1.50
2023-04-27T11:12:19.706Z,1.10
2023-04-27T11:13:19.742Z,1.50
2023-04-27T11:14:19.710Z,1.20
2023-04-27T11:15:19.716Z,1.20
2023-04-27T11:16:19.741Z,1.10
2023-04-27T11:17:19.797Z,1.00
2023-04-27T11:18:19.685Z,1.60
2023-04-27T11:19:19.696Z,0.80
2023-04-27T11:20:19.678Z,1.30
2023-04-27T11:21:19.692Z,1.40
2023-04-27T11:22:19.668Z,0.90
2023-04-27T11:23:19.678Z,1.00
2023-04-27T11:24:19.657Z,1.20
2023-04-27T11:25:19.683Z,1.60
2023-04-27T11:26:19.659Z,0.80
2023-04-27T11:27:19.647Z,1.40
2023-04-27T11:28:19.658Z,1.30
2023-04-27T11:29:19.653Z,2.20
2023-04-27T11:30:19.700Z,1.70
2023-04-27T11:31:19.683Z,1.70
2023-04-27T11:32:19.642Z,1.10
2023-04-27T11:33:19.660Z,1.40
2023-04-27T11:34:19.745Z,1.10
2023-04-27T11:35:19.688Z,1.20
2023-04-27T11:36:19.630Z,1.90
2023-04-27T11:37:19.669Z,0.80
2023-04-27T11:38:19.658Z,1.20
2023-04-27T11:39:19.725Z,0.90
2023-04-27T11:40:20.162Z,1.10
2023-04-27T11:41:19.625Z,1.30
2023-04-27T11:42:19.626Z,1.00
2023-04-27T11:43:19.599Z,1.10
2023-04-27T11:44:19.591Z,0.90
2023-04-27T11:45:19.598Z,1.10
2023-04-27T11:46:19.639Z,0.80
2023-04-27T11:47:19.609Z,1.30
2023-04-27T11:48:19.594Z,1.20
2023-04-27T11:49:19.618Z,1.40
2023-04-27T11:50:19.580Z,1.30
2023-04-27T11:51:19.581Z,0.90
2023-04-27T11:52:19.613Z,0.90
2023-04-27T11:53:19.580Z,1.10
2023-04-27T11:54:19.558Z,1.00
2023-04-27T11:55:19.585Z,1.10
2023-04-27T11:56:19.608Z,0.90
2023-04-27T11:57:19.579Z,0.80
2023-04-27T11:58:19.556Z,2.10
2023-04-27T11:59:19.557Z,1.10
2023-04-27T12:00:19.566Z,0.90
2023-04-27T12:01:27.739Z,1.00
2023-04-27T12:02:19.619Z,1.00
2023-04-27T12:03:19.775Z,1.10
2023-04-27T12:04:20.247Z,2.30
2023-04-27T12:05:19.739Z,0.80
2023-04-27T12:06:32.221Z,1.10
2023-04-27T12:07:19.542Z,0.90
2023-04-27T12:08:19.537Z,0.90
2023-04-27T12:09:19.516Z,0.80
2023-04-27T12:10:19.541Z,1.10
2023-04-27T12:11:19.529Z,1.00
2023-04-27T12:12:19.523Z,1.20
2023-04-27T12:13:19.520Z,0.70
2023-04-27T12:14:19.498Z,0.80
2023-04-27T12:15:19.494Z,0.80
2023-04-27T12:16:19.504Z,1.20
2023-04-27T12:17:19.499Z,0.90
2023-04-27T12:18:19.497Z,0.90
2023-04-27T12:19:19.511Z,1.00
2023-04-27T12:20:19.491Z,0.90
2023-04-27T12:21:19.512Z,1.10
2023-04-27T12:22:19.477Z,0.80
2023-04-27T12:23:19.479Z,0.80
2023-04-27T12:24:19.463Z,1.00
2023-04-27T12:25:19.477Z,1.10
2023-04-27T12:26:19.488Z,1.00
2023-04-27T12:27:19.462Z,1.10
2023-04-27T12:28:19.456Z,0.80
2023-04-27T12:29:19.476Z,1.20
2023-04-27T12:30:19.470Z,1.00
2023-04-27T12:31:19.488Z,1.80
2023-04-27T12:32:19.452Z,1.10
2023-04-27T12:33:19.493Z,1.50
2023-04-27T12:34:19.442Z,1.20
2023-04-27T12:35:19.437Z,1.10
2023-04-27T12:36:19.432Z,1.20
2023-04-27T12:37:19.463Z,2.10
2023-04-27T12:38:19.438Z,1.10
2023-04-27T12:39:19.423Z,1.10
2023-04-27T12:40:19.439Z,1.40
2023-04-27T12:41:19.408Z,1.30
2023-04-27T12:42:19.433Z,1.20
2023-04-27T12:43:19.410Z,0.90
2023-04-27T12:44:19.403Z,1.00
2023-04-27T12:45:19.403Z,1.00
2023-04-27T12:46:19.455Z,1.30
2023-04-27T12:47:40.534Z,0.90
2023-04-27T12:48:19.394Z,1.30
2023-04-27T12:49:19.402Z,1.10
2023-04-27T12:50:19.380Z,1.60
2023-04-27T12:51:19.394Z,1.20
2023-04-27T12:52:19.430Z,1.00
2023-04-27T12:53:19.408Z,1.60
2023-04-27T12:54:19.366Z,0.80
2023-04-27T12:55:32.269Z,0.80
2023-04-27T12:56:19.371Z,1.00
2023-04-27T12:57:19.412Z,1.00
2023-04-27T12:58:19.368Z,0.80
2023-04-27T12:59:19.374Z,0.70
2023-04-27T13:00:19.371Z,1.70
2023-04-27T13:01:19.403Z,1.30
2023-04-27T13:02:19.375Z,1.20
2023-04-27T13:03:19.519Z,1.50
2023-04-27T13:04:19.935Z,0.90
2023-04-27T13:05:19.351Z,1.40
2023-04-27T13:06:19.356Z,1.00
2023-04-27T13:07:19.342Z,1.00
2023-04-27T13:08:19.324Z,1.00
2023-04-27T13:09:19.336Z,0.90
2023-04-27T13:10:19.323Z,1.20
2023-04-27T13:11:19.320Z,1.00
2023-04-27T13:12:19.318Z,1.00
2023-04-27T13:13:19.301Z,1.00
2023-04-27T13:14:19.292Z,1.60
2023-04-27T13:15:19.314Z,1.00
2023-04-27T13:16:19.354Z,1.20
2023-04-27T13:17:19.341Z,1.50
2023-04-27T13:18:19.343Z,1.70
2023-04-27T13:19:19.303Z,1.50
2023-04-27T13:20:19.297Z,0.70
2023-04-27T13:21:19.293Z,0.90
2023-04-27T13:22:19.282Z,0.70
2023-04-27T13:23:19.285Z,1.10
2023-04-27T13:24:19.277Z,0.80